Terminal Aerodrome Forecast
Issued by NWS

Home | Current Version | Previous Version | Text Only | Print | Product List | Glossary On
Versions: 1 2 3 4 5 6 7 8 9 10 11 12 13 14 15 16 17 18 19
377
FTUS43 KDLH 102341
TAFBRD
TAF
KBRD 102341Z 1100/1124 13003KT P6SM SCT018 BKN090 OVC140
     FM110200 11005KT P6SM -SN SCT028 OVC040
     FM110600 10006KT 5SM -SHSN BR SCT012 OVC020
     FM110900 08007KT 3SM -SN BR SCT008 OVC012
     FM111100 07008KT 1SM -SN OVC008
     FM111800 06007KT 3SM -SN OVC008
     FM112000 02005KT 6SM -SN OVC010=

USA.gov is the U.S. government's official web portal to all federal, state and local government web resources and services.